Time;durP1;ratioP1;P1;durP2;ratioP2;P2;SDS_P1;SDS_P2;PMS_P1;PMS_P2;Temp;Humidity;BMP_temperature;BMP_pressure;BME280_temperature;BME280_humidity;BME280_pressure;Samples;Min_cycle;Max_cycle;Signal;HPM_P1;HPM_P2
2022/08/21 00:01:21;;;;;;;3.90;3.47;;;15.80;99.90;;;16.47;100.00;98045.03;5234533;28;20242;-66
2022/08/21 00:03:56;;;;;;;3.65;3.28;;;15.70;99.90;;;16.48;100.00;98045.91;5238207;28;20759;-67
2022/08/21 00:06:31;;;;;;;4.10;3.80;;;15.70;99.90;;;16.44;100.00;98043.22;5241733;28;20602;-67
2022/08/21 00:09:08;;;;;;;4.05;3.80;;;15.70;99.90;;;16.42;100.00;98042.28;5237838;28;20195;-66
2022/08/21 00:11:41;;;;;;;4.28;4.07;;;15.70;99.90;;;16.40;100.00;98045.63;5236182;28;20204;-66
2022/08/21 00:14:17;;;;;;;3.78;3.58;;;15.60;99.90;;;16.40;100.00;98043.94;5239487;28;20231;-65
2022/08/21 00:16:53;;;;;;;53.22;7.20;;;15.70;99.90;;;16.41;100.00;98047.38;5239841;28;20294;-66
2022/08/21 00:19:33;;;;;;;14.82;4.40;;;15.70;99.90;;;16.30;100.00;98044.41;5240413;28;20207;-66
2022/08/21 00:22:07;;;;;;;4.50;4.10;;;15.50;99.90;;;16.25;100.00;98045.03;5235359;28;20711;-66
2022/08/21 00:24:41;;;;;;;75.88;7.47;;;15.50;99.90;;;16.26;100.00;98044.25;5235235;28;20229;-65
2022/08/21 00:27:15;;;;;;;5.20;4.75;;;15.50;99.90;;;16.20;100.00;98044.88;5239197;28;20203;-65
2022/08/21 00:29:50;;;;;;;4.22;4.00;;;15.50;99.90;;;16.21;100.00;98039.78;5234477;28;20240;-66
2022/08/21 00:32:28;;;;;;;5.30;4.90;;;15.50;99.90;;;16.14;100.00;98040.38;5245774;28;20204;-66
2022/08/21 00:35:02;;;;;;;11.18;4.90;;;15.50;99.90;;;16.19;100.00;98040.53;5234606;28;20204;-66
2022/08/21 00:37:36;;;;;;;5.18;4.65;;;15.50;99.90;;;16.19;100.00;98040.53;5240051;28;20228;-67
2022/08/21 00:40:18;;;;;;;4.75;4.40;;;15.50;99.90;;;16.25;100.00;98034.72;5241910;28;20195;-66
2022/08/21 00:42:53;;;;;;;9.45;4.55;;;15.50;99.90;;;16.25;100.00;98035.59;5239634;28;20274;-66
2022/08/21 00:45:28;;;;;;;10.18;4.65;;;15.50;99.90;;;16.13;100.00;98038.59;5241325;28;20211;-64
2022/08/21 00:48:04;;;;;;;11.82;4.47;;;15.50;99.90;;;16.12;100.00;98035.97;5239784;28;20212;-67
2022/08/21 00:50:45;;;;;;;19.90;4.40;;;15.40;99.90;;;16.05;100.00;98024.53;5239400;28;20200;-66
2022/08/21 00:53:20;;;;;;;5.82;4.05;;;15.40;99.90;;;16.07;100.00;98035.78;5243205;28;20266;-66
2022/08/21 00:55:56;;;;;;;9.43;3.78;;;15.40;99.90;;;16.07;100.00;98033.22;5243262;28;20224;-66
2022/08/21 00:58:32;;;;;;;4.97;3.92;;;15.40;99.90;;;16.07;100.00;98033.22;5240039;28;20232;-66
2022/08/21 01:01:08;;;;;;;3.67;3.00;;;15.40;99.90;;;16.07;100.00;98033.22;5239827;28;20694;-66
2022/08/21 01:03:44;;;;;;;4.13;3.00;;;15.30;99.90;;;16.02;100.00;98029.56;5241246;28;20229;-66
2022/08/21 01:06:19;;;;;;;14.18;3.75;;;15.30;99.90;;;15.98;100.00;98030.28;5243757;28;20208;-67
2022/08/21 01:08:53;;;;;;;17.95;3.30;;;15.30;99.90;;;15.95;100.00;98032.75;5240111;28;20211;-66
2022/08/21 01:11:27;;;;;;;4.63;3.00;;;15.20;99.90;;;15.96;100.00;98029.34;5245062;28;20204;-66
2022/08/21 01:14:02;;;;;;;2.55;2.45;;;15.20;99.90;;;15.97;100.00;98021.69;5243453;28;20226;-66
2022/08/21 01:16:36;;;;;;;2.95;2.80;;;15.20;99.90;;;15.97;100.00;98023.38;5243810;28;20212;-64
2022/08/21 01:19:13;;;;;;;2.63;2.42;;;15.20;99.90;;;15.79;100.00;98025.22;5241030;28;20215;-66
2022/08/21 01:21:49;;;;;;;3.60;2.80;;;15.10;99.90;;;15.80;100.00;98030.47;5243262;28;21812;-66
2022/08/21 01:24:24;;;;;;;3.88;2.78;;;15.10;99.90;;;15.81;100.00;98026.19;5244005;28;20585;-65
2022/08/21 01:26:59;;;;;;;2.60;2.50;;;15.10;99.90;;;15.83;100.00;98033.16;5239270;28;20258;-66
2022/08/21 01:29:39;;;;;;;2.70;2.60;;;15.10;99.90;;;15.79;100.00;98031.25;5240557;28;20203;-64
2022/08/21 01:32:18;;;;;;;2.92;2.72;;;15.10;99.90;;;15.76;100.00;98026.88;5232162;28;20210;-65
2022/08/21 01:34:53;;;;;;;2.97;2.78;;;15.00;99.90;;;15.76;100.00;98020.84;5224670;28;20762;-64
2022/08/21 01:37:29;;;;;;;6.03;3.47;;;15.00;99.90;;;15.75;100.00;98026.81;5240371;28;20211;-66
2022/08/21 01:40:04;;;;;;;12.38;3.38;;;14.90;99.90;;;15.68;100.00;98020.56;5232415;28;20232;-66
2022/08/21 01:42:41;;;;;;;132.73;8.88;;;14.80;99.90;;;15.67;100.00;98020.44;5231646;28;20223;-66
2022/08/21 01:45:16;;;;;;;23.00;3.58;;;14.80;99.90;;;15.59;100.00;98019.25;5241896;28;20204;-65
2022/08/21 01:47:50;;;;;;;4.60;3.15;;;14.80;99.90;;;15.60;100.00;98019.34;5237223;28;20208;-66
2022/08/21 01:50:25;;;;;;;12.07;3.55;;;14.90;99.90;;;15.56;100.00;98017.44;5234235;28;20207;-66
2022/08/21 01:53:00;;;;;;;5.28;3.50;;;14.90;99.90;;;15.56;100.00;98020.00;5236033;28;20223;-66
2022/08/21 01:55:34;;;;;;;4.00;3.63;;;14.80;99.90;;;15.57;100.00;98015.72;5239620;28;20664;-65
2022/08/21 01:58:08;;;;;;;9.73;3.70;;;14.70;99.90;;;15.55;100.00;98020.84;5234243;28;20565;-66
2022/08/21 02:00:42;;;;;;;12.05;4.35;;;14.70;99.90;;;15.41;100.00;98011.69;5234329;28;20216;-67
2022/08/21 02:03:16;;;;;;;4.22;3.90;;;14.60;99.90;;;15.41;100.00;98015.13;5237817;28;20228;-66
2022/08/21 02:06:14;;;;;;;4.20;3.90;;;14.60;99.90;;;15.41;100.00;98011.69;5236282;28;20251;-66
2022/08/21 02:08:51;;;;;;;6.15;4.15;;;14.60;99.90;;;15.37;100.00;98005.53;5236517;28;20209;-66
2022/08/21 02:11:25;;;;;;;4.38;3.97;;;14.60;99.90;;;15.30;100.00;98008.66;5234376;28;20286;-66
2022/08/21 02:13:59;;;;;;;3.63;3.33;;;14.60;99.90;;;15.24;100.00;98005.84;5229509;28;20212;-66
2022/08/21 02:16:34;;;;;;;17.95;4.28;;;14.50;99.90;;;15.25;100.00;98011.06;5235899;28;20257;-65
2022/08/21 02:19:09;;;;;;;4.10;3.70;;;14.50;99.90;;;15.19;100.00;98015.94;5236646;28;20247;-65
2022/08/21 02:21:44;;;;;;;4.10;3.90;;;14.50;99.90;;;15.23;100.00;98016.97;5230325;28;20209;-66
2022/08/21 02:24:20;;;;;;;6.28;3.85;;;14.50;99.90;;;15.20;100.00;98011.69;5236575;28;20448;-66
2022/08/21 02:26:54;;;;;;;3.42;3.22;;;14.50;99.90;;;15.15;100.00;98014.06;5235756;28;20700;-66
2022/08/21 02:29:29;;;;;;;7.50;4.05;;;14.40;99.90;;;15.13;100.00;98005.38;5229215;28;21100;-64
2022/08/21 02:32:03;;;;;;;3.92;3.63;;;14.40;99.90;;;15.14;100.00;98007.16;5230377;28;20205;-66
2022/08/21 02:34:37;;;;;;;4.00;3.70;;;14.30;99.90;;;15.14;100.00;98004.59;5232288;28;20310;-66
2022/08/21 02:37:12;;;;;;;3.45;2.97;;;14.40;99.90;;;15.13;100.00;98004.50;5237374;28;20637;-66
2022/08/21 02:39:48;;;;;;;3.40;3.20;;;14.40;99.90;;;15.18;100.00;98003.88;5229739;28;20221;-66
2022/08/21 02:42:22;;;;;;;3.92;3.60;;;14.40;99.90;;;15.16;100.00;97997.78;5227878;28;20208;-65
2022/08/21 02:44:56;;;;;;;10.13;3.83;;;14.40;99.90;;;15.21;100.00;98004.00;5240096;28;20611;-65
2022/08/21 02:47:30;;;;;;;3.30;3.00;;;14.40;99.90;;;15.11;100.00;98007.03;5244174;28;20208;-65
2022/08/21 02:50:05;;;;;;;3.35;3.15;;;14.40;99.90;;;15.15;100.00;98003.75;5227900;28;20276;-64
2022/08/21 02:52:40;;;;;;;4.70;3.35;;;14.40;99.90;;;15.19;100.00;97997.91;5232047;28;20205;-66
2022/08/21 02:55:15;;;;;;;3.83;3.50;;;14.40;99.90;;;15.12;100.00;98002.75;5237527;28;20239;-66
2022/08/21 02:57:50;;;;;;;3.58;3.38;;;14.30;99.90;;;15.08;100.00;98002.63;5232150;28;22372;-66
2022/08/21 03:00:28;;;;;;;26.00;4.47;;;14.40;99.90;;;15.00;100.00;97992.84;5240948;28;20224;-65
2022/08/21 03:03:03;;;;;;;3.63;3.40;;;14.20;99.90;;;14.93;100.00;97990.81;5232258;28;20249;-65
2022/08/21 03:05:38;;;;;;;8.38;3.97;;;14.20;99.90;;;14.83;100.00;97995.56;5232722;28;20215;-66
2022/08/21 03:08:15;;;;;;;4.65;3.58;;;14.10;99.90;;;14.85;100.00;97996.53;5230040;28;20649;-65
2022/08/21 03:10:53;;;;;;;4.18;3.35;;;14.10;99.90;;;14.84;100.00;97991.31;5229044;28;20289;-64
2022/08/21 03:13:27;;;;;;;4.32;3.90;;;14.10;99.90;;;14.78;100.00;97997.06;5231219;28;20225;-65
2022/08/21 03:16:01;;;;;;;3.80;3.60;;;14.00;99.90;;;14.73;100.00;98000.25;5237688;28;20204;-65
2022/08/21 03:18:37;;;;;;;13.63;3.88;;;13.90;99.90;;;14.62;100.00;97995.53;5230089;28;20200;-64
2022/08/21 03:21:13;;;;;;;36.28;5.03;;;13.80;99.90;;;14.54;100.00;97996.91;5228564;28;20205;-66
2022/08/21 03:23:47;;;;;;;3.90;3.60;;;13.80;99.90;;;14.45;100.00;97999.03;5235877;28;20707;-66
2022/08/21 03:26:24;;;;;;;4.15;3.95;;;13.70;99.90;;;14.45;100.00;97995.56;5226125;28;20620;-66
2022/08/21 03:29:00;;;;;;;3.75;3.55;;;13.70;99.90;;;14.42;100.00;98001.44;5227694;28;20216;-65
2022/08/21 03:31:34;;;;;;;3.70;3.40;;;13.60;99.90;;;14.36;100.00;98002.06;5229702;28;20260;-65
2022/08/21 03:34:08;;;;;;;5.25;3.90;;;13.60;99.90;;;14.38;100.00;98005.59;5238696;28;20270;-64
2022/08/21 03:36:43;;;;;;;3.85;3.65;;;13.70;99.90;;;14.34;100.00;98008.84;5229790;28;20197;-65
2022/08/21 03:39:17;;;;;;;4.07;3.67;;;13.60;99.90;;;14.38;100.00;98015.88;5233379;28;20313;-65
2022/08/21 03:41:53;;;;;;;3.60;3.40;;;13.70;99.90;;;14.42;100.00;98010.06;5234530;28;20212;-66
2022/08/21 03:44:29;;;;;;;3.80;3.50;;;13.70;99.90;;;14.45;100.00;98011.00;5234613;28;20684;-66
2022/08/21 03:47:04;;;;;;;4.13;3.72;;;13.80;99.90;;;14.48;100.00;98006.88;5233407;28;20300;-65
2022/08/21 03:49:39;;;;;;;9.27;4.10;;;13.80;99.90;;;14.43;100.00;98011.81;5235014;28;20232;-65
2022/08/21 03:52:13;;;;;;;4.13;3.78;;;13.70;99.90;;;14.47;100.00;98019.66;5240606;28;20703;-64
2022/08/21 03:54:47;;;;;;;4.15;3.85;;;13.70;99.90;;;14.43;100.00;98013.50;5230235;28;20304;-64
2022/08/21 03:57:22;;;;;;;4.05;3.75;;;13.70;99.90;;;14.46;100.00;98017.91;5233078;28;20200;-66
2022/08/21 03:59:56;;;;;;;24.52;3.85;;;13.80;99.90;;;14.54;100.00;98019.19;5230327;28;20259;-64
2022/08/21 04:02:30;;;;;;;3.08;2.97;;;13.70;99.90;;;14.46;100.00;98023.06;5233161;28;20295;-64
2022/08/21 04:05:06;;;;;;;3.50;3.20;;;13.70;99.90;;;14.51;100.00;98019.88;5233248;28;20208;-64
2022/08/21 04:07:40;;;;;;;3.47;3.22;;;13.70;99.90;;;14.47;100.00;98019.66;5238926;28;20216;-65
2022/08/21 04:10:15;;;;;;;4.65;3.20;;;13.70;99.90;;;14.45;100.00;98021.28;5233480;28;20196;-65
2022/08/21 04:12:50;;;;;;;29.25;4.32;;;13.70;99.90;;;14.38;100.00;98028.72;5237049;28;20747;-65
2022/08/21 04:15:27;;;;;;;5.18;3.45;;;13.60;99.90;;;14.26;100.00;98025.63;5230593;28;20212;-66
2022/08/21 04:18:01;;;;;;;12.50;3.97;;;13.50;99.90;;;14.22;100.00;98026.28;5233953;28;20282;-64
2022/08/21 04:20:35;;;;;;;4.10;3.80;;;13.40;99.90;;;14.16;100.00;98026.91;5237622;28;20296;-65
2022/08/21 04:23:09;;;;;;;3.45;3.25;;;13.40;99.90;;;14.10;100.00;98034.31;5228684;28;20215;-64
2022/08/21 04:25:44;;;;;;;10.90;4.07;;;13.40;99.90;;;14.09;100.00;98031.69;5228941;28;20202;-63
2022/08/21 04:28:19;;;;;;;4.35;3.95;;;13.40;99.90;;;14.03;100.00;98036.53;5230517;28;20236;-63
2022/08/21 04:30:56;;;;;;;7.05;4.30;;;13.30;99.90;;;13.97;100.00;98038.00;5234662;28;20214;-65
2022/08/21 04:33:30;;;;;;;6.80;4.03;;;13.20;99.90;;;13.93;100.00;98043.81;5230970;28;20232;-64
2022/08/21 04:36:06;;;;;;;4.55;4.15;;;13.10;99.90;;;13.81;100.00;98043.22;5232100;28;20213;-65
2022/08/21 04:38:40;;;;;;;4.32;3.92;;;13.00;99.90;;;13.79;100.00;98047.41;5229281;28;20653;-66
2022/08/21 04:41:17;;;;;;;4.40;4.10;;;13.00;99.90;;;13.80;100.00;98048.31;5235843;28;20715;-64
2022/08/21 04:44:02;;;;;;;4.32;3.92;;;13.10;99.90;;;13.83;100.00;98056.16;5233932;28;20220;-65
2022/08/21 04:46:36;;;;;;;4.55;4.15;;;13.10;99.90;;;13.90;100.00;98056.50;5235351;28;20200;-67
2022/08/21 04:49:09;;;;;;;4.63;4.05;;;13.20;99.90;;;13.90;100.00;98056.50;5230475;28;20293;-65
2022/08/21 04:51:44;;;;;;;4.10;3.80;;;13.10;99.90;;;13.82;100.00;98062.09;5233509;28;20201;-64
2022/08/21 04:54:22;;;;;;;4.13;3.85;;;13.10;99.90;;;13.75;100.00;98055.78;5236201;28;20690;-64
2022/08/21 04:57:03;;;;;;;4.38;4.07;;;13.00;99.90;;;13.81;100.00;98066.34;5231990;28;20274;-64
2022/08/21 04:59:42;;;;;;;4.70;4.30;;;13.00;99.90;;;13.82;100.00;98072.38;5231882;28;20216;-64
2022/08/21 05:02:16;;;;;;;6.03;5.43;;;13.10;99.90;;;13.87;100.00;98071.78;5229110;28;20201;-64
2022/08/21 05:04:54;;;;;;;5.60;5.18;;;13.20;99.90;;;13.94;100.00;98078.13;5231125;28;20752;-64
2022/08/21 05:07:31;;;;;;;6.57;5.47;;;13.30;99.90;;;14.00;100.00;98072.38;5234548;28;20220;-64
2022/08/21 05:10:16;;;;;;;11.30;5.95;;;13.40;99.90;;;14.01;100.00;98066.41;5232199;28;20201;-66
2022/08/21 05:12:50;;;;;;;6.07;5.68;;;13.40;99.90;;;14.09;100.00;98077.94;5232313;28;20232;-65
2022/08/21 05:15:26;;;;;;;5.82;5.22;;;13.40;99.90;;;14.16;100.00;98069.69;5227115;28;20201;-65
2022/08/21 05:18:00;;;;;;;4.63;4.30;;;13.50;99.90;;;14.19;100.00;98074.97;5233758;28;20291;-64
2022/08/21 05:20:34;;;;;;;119.00;9.43;;;13.50;99.90;;;14.12;100.00;98078.09;5235837;28;20577;-64
2022/08/21 05:23:09;;;;;;;4.40;3.65;;;13.40;99.90;;;14.20;100.00;98072.50;5239932;28;20615;-64
2022/08/21 05:25:44;;;;;;;13.50;5.03;;;13.40;99.90;;;14.27;100.00;98065.06;5240914;28;20200;-64
2022/08/21 05:28:18;;;;;;;21.65;5.60;;;13.50;99.90;;;14.32;100.00;98073.88;5235121;28;20287;-64
2022/08/21 05:30:54;;;;;;;10.55;4.88;;;13.50;99.90;;;14.37;100.00;98083.56;5231848;28;20249;-64
2022/08/21 05:33:28;;;;;;;4.75;4.38;;;13.40;99.90;;;14.38;100.00;98076.72;5239439;28;20220;-66
2022/08/21 05:36:03;;;;;;;6.57;6.05;;;13.50;99.90;;;14.47;100.00;98081.41;5233635;28;20207;-64
2022/08/21 05:38:37;;;;;;;6.40;5.90;;;13.70;99.90;;;14.59;100.00;98076.81;5238215;28;20559;-64
2022/08/21 05:41:12;;;;;;;6.05;5.65;;;13.80;99.90;;;14.78;99.96;98081.97;5235702;28;20547;-64
2022/08/21 05:43:47;;;;;;;7.43;3.95;;;13.90;99.90;;;15.00;98.83;98083.81;5232365;28;20227;-65
2022/08/21 05:46:22;;;;;;;4.03;3.72;;;14.00;99.90;;;15.23;97.74;98077.06;5231113;28;20211;-64
2022/08/21 05:48:57;;;;;;;4.25;4.05;;;14.20;99.90;;;15.48;96.44;98076.41;5237794;28;20200;-64
2022/08/21 05:51:32;;;;;;;4.47;4.07;;;14.50;99.90;;;15.80;93.23;98075.97;5239554;28;20273;-65
2022/08/21 05:54:06;;;;;;;4.93;4.40;;;14.80;99.90;;;15.91;92.09;98072.09;5234797;28;20274;-64
2022/08/21 05:56:44;;;;;;;5.28;3.90;;;14.80;99.90;;;16.19;90.35;98072.34;5238241;28;20204;-66
2022/08/21 05:59:19;;;;;;;4.07;3.78;;;15.00;99.90;;;16.57;90.04;98072.06;5237938;28;20303;-65
2022/08/21 06:01:55;;;;;;;4.63;4.22;;;15.40;99.90;;;17.11;87.41;98070.63;5235885;28;20266;-65
2022/08/21 06:04:30;;;;;;;4.38;4.18;;;15.80;99.90;;;17.72;85.19;98068.31;5233946;28;20304;-65
2022/08/21 06:07:04;;;;;;;4.38;4.07;;;16.30;99.90;;;18.23;81.49;98073.41;5235963;28;21543;-65
2022/08/21 06:09:39;;;;;;;3.92;3.72;;;16.60;99.90;;;18.59;78.89;98067.53;5237053;28;20207;-65
2022/08/21 06:12:15;;;;;;;3.92;3.63;;;16.80;99.90;;;19.05;77.89;98069.72;5235378;28;20211;-66
2022/08/21 06:14:51;;;;;;;4.40;3.67;;;17.10;99.90;;;19.38;77.54;98068.00;5238049;28;20293;-65
2022/08/21 06:17:31;;;;;;;3.83;3.63;;;17.40;99.90;;;19.85;73.99;98065.72;5241564;28;20706;-65
2022/08/21 06:20:07;;;;;;;3.22;3.03;;;17.70;99.90;;;20.31;72.78;98058.97;5236835;28;20204;-66
2022/08/21 06:22:41;;;;;;;3.55;3.35;;;18.00;99.90;;;20.55;71.83;98062.16;5237929;28;20929;-65
2022/08/21 06:25:16;;;;;;;3.83;3.63;;;18.30;99.90;;;20.70;70.27;98067.66;5234947;28;20207;-65
2022/08/21 06:27:51;;;;;;;3.50;3.20;;;18.30;99.90;;;21.21;68.45;98066.03;5227010;28;20262;-65
2022/08/21 06:30:25;;;;;;;3.40;3.20;;;18.90;99.90;;;21.50;67.45;98061.38;5237786;28;20596;-66
2022/08/21 06:33:03;;;;;;;3.50;3.30;;;19.30;99.90;;;21.56;67.54;98064.06;5239949;28;20315;-65
2022/08/21 06:35:38;;;;;;;3.22;2.97;;;19.20;99.90;;;21.95;66.70;98070.78;5234589;28;20211;-66
2022/08/21 06:38:14;;;;;;;4.82;3.33;;;19.40;99.90;;;21.98;66.19;98070.81;5238749;28;20220;-65
2022/08/21 06:40:48;;;;;;;3.35;3.15;;;19.70;99.90;;;22.36;65.72;98064.44;5231454;28;20220;-66
2022/08/21 06:43:25;;;;;;;3.33;3.13;;;20.10;99.90;;;22.62;64.55;98064.78;5240529;28;20240;-65
2022/08/21 06:46:12;;;;;;;3.60;3.30;;;20.30;99.90;;;22.81;63.27;98053.75;5238899;28;20258;-65
2022/08/21 06:48:49;;;;;;;3.55;3.35;;;20.40;99.90;;;23.29;63.14;98052.56;5234076;28;20280;-65
2022/08/21 06:51:28;;;;;;;3.13;2.92;;;20.70;99.90;;;23.15;62.75;98055.03;5236904;28;20197;-65
2022/08/21 06:54:02;;;;;;;3.42;2.92;;;20.80;99.90;;;23.23;61.53;98062.91;5235369;28;20227;-65
2022/08/21 06:56:38;;;;;;;3.28;2.92;;;21.00;99.90;;;23.41;60.85;98056.09;5239014;28;20232;-66
2022/08/21 06:59:12;;;;;;;3.38;3.13;;;21.20;99.90;;;23.57;60.44;98056.25;5232270;28;20204;-66
2022/08/21 07:01:47;;;;;;;3.20;3.00;;;21.20;99.90;;;23.82;60.10;98069.56;5236688;28;20500;-66
2022/08/21 07:04:23;;;;;;;3.25;3.05;;;21.60;99.90;;;23.54;60.68;98061.47;5234802;28;20220;-66
2022/08/21 07:06:58;;;;;;;3.85;3.40;;;21.40;99.90;;;23.72;60.80;98062.50;5236674;28;20222;-66
2022/08/21 07:09:32;;;;;;;3.70;3.10;;;21.50;99.90;;;23.71;60.88;98061.63;5235938;28;20647;-66
2022/08/21 07:12:07;;;;;;;3.05;2.85;;;21.50;99.90;;;23.84;59.14;98060.00;5236880;28;20245;-67
2022/08/21 07:14:42;;;;;;;3.55;3.08;;;21.70;99.90;;;24.21;60.45;98048.06;5231467;28;20231;-65
2022/08/21 07:17:16;;;;;;;3.53;3.22;;;21.80;99.90;;;24.49;59.20;98053.47;5237503;28;20555;-66
2022/08/21 07:19:52;;;;;;;3.20;3.00;;;22.10;99.90;;;24.62;58.63;98055.28;5237657;28;20477;-66
2022/08/21 07:22:27;;;;;;;3.78;3.05;;;22.30;99.90;;;25.01;58.03;98052.78;5234357;28;20316;-64
2022/08/21 07:25:01;;;;;;;3.28;2.97;;;22.60;99.90;;;25.37;55.08;98049.41;5236404;28;20199;-65
2022/08/21 07:27:35;;;;;;;3.55;2.70;;;22.80;99.90;;;25.56;54.43;98051.19;5235733;28;20205;-65
2022/08/21 07:30:11;;;;;;;3.22;2.70;;;22.80;99.90;;;26.02;54.06;98048.56;5242265;28;20203;-64
2022/08/21 07:32:45;;;;;;;3.70;3.05;;;23.00;99.90;;;26.22;52.86;98048.53;5235263;28;20215;-65
2022/08/21 07:35:22;;;;;;;3.22;2.78;;;23.40;99.90;;;26.42;53.93;98047.59;5241077;28;21840;-66
2022/08/21 07:37:56;;;;;;;3.22;2.92;;;23.50;99.90;;;26.26;51.32;98049.38;5236936;28;20691;-65
2022/08/21 07:40:31;;;;;;;3.10;2.90;;;23.20;99.90;;;26.68;51.46;98039.69;5236180;28;20660;-63
2022/08/21 07:43:05;;;;;;;3.03;2.83;;;23.60;99.90;;;26.62;50.57;98045.81;5237899;28;20601;-65
2022/08/21 07:45:39;;;;;;;3.30;2.97;;;23.60;99.90;;;26.27;51.82;98038.03;5230008;28;20228;-64
2022/08/21 07:48:13;;;;;;;3.55;2.90;;;23.40;99.90;;;26.08;53.19;98036.34;5234083;28;20204;-63
2022/08/21 07:50:49;;;;;;;2.95;2.75;;;23.80;99.90;;;26.12;53.25;98035.44;5234341;28;20826;-65
2022/08/21 07:53:24;;;;;;;4.03;2.95;;;24.00;99.90;;;25.79;52.28;98034.59;5238574;28;20231;-65
2022/08/21 07:55:59;;;;;;;3.92;3.22;;;23.90;99.90;;;25.73;52.50;98030.22;5233296;28;20227;-64
2022/08/21 07:58:34;;;;;;;3.58;3.10;;;24.00;99.90;;;25.70;52.63;98025.00;5237659;28;20277;-66
2022/08/21 08:01:08;;;;;;;4.03;3.05;;;23.90;99.90;;;25.74;51.45;98028.47;5227638;28;20218;-65
2022/08/21 08:03:42;;;;;;;3.97;3.10;;;24.10;99.30;;;25.75;51.74;98027.59;5234537;28;20642;-65
2022/08/21 08:06:19;;;;;;;6.38;3.53;;;24.10;99.90;;;25.95;50.99;98031.09;5228892;28;20343;-67
2022/08/21 08:08:54;;;;;;;4.43;3.60;;;24.30;99.20;;;25.98;50.56;98024.97;5218302;28;20680;-67
2022/08/21 08:11:28;;;;;;;4.40;3.67;;;24.50;97.80;;;25.83;49.92;98029.38;5215938;28;20219;-66
2022/08/21 08:14:03;;;;;;;4.63;3.20;;;24.20;98.50;;;25.71;50.53;98031.09;5216733;28;20232;-65
2022/08/21 08:16:37;;;;;;;5.10;3.38;;;24.10;97.70;;;25.76;50.94;98026.75;5216788;28;20294;-65
2022/08/21 08:19:12;;;;;;;4.68;3.88;;;24.30;98.30;;;25.74;51.78;98023.25;5228225;28;21705;-70
2022/08/21 08:21:48;;;;;;;6.15;4.15;;;24.40;98.10;;;25.41;53.53;98017.16;5218812;28;20238;-67
2022/08/21 08:24:22;;;;;;;4.63;4.15;;;24.20;99.50;;;25.44;51.99;98011.00;5217172;28;20309;-68
2022/08/21 08:26:57;;;;;;;4.30;3.30;;;24.10;98.60;;;25.53;51.73;98006.66;5219699;28;20214;-67
2022/08/21 08:29:32;;;;;;;4.55;4.00;;;24.40;97.90;;;25.84;50.72;98007.56;5224535;28;20204;-66
2022/08/21 08:32:09;;;;;;;5.25;4.18;;;24.80;97.10;;;25.87;49.03;98006.69;5228303;28;20674;-67
2022/08/21 08:34:44;;;;;;;4.95;4.05;;;24.90;95.60;;;25.60;50.18;98005.78;5226812;28;20235;-66
2022/08/21 08:37:22;;;;;;;5.53;3.92;;;24.60;95.80;;;25.65;52.44;98007.53;5231625;28;20298;-65
2022/08/21 08:40:02;;;;;;;4.40;4.00;;;24.70;97.90;;;25.85;50.38;98000.56;5224569;28;20370;-68
2022/08/21 08:42:39;;;;;;;4.03;3.72;;;25.00;96.20;;;25.97;49.38;98002.28;5228466;28;20710;-66
2022/08/21 08:45:17;;;;;;;5.03;4.00;;;25.00;95.50;;;25.90;49.84;97996.19;5237127;28;20231;-65
2022/08/21 08:48:02;;;;;;;4.05;3.70;;;25.10;95.70;;;25.99;50.13;98001.41;5232695;28;20200;-67
2022/08/21 08:50:46;;;;;;;4.30;4.00;;;25.30;95.80;;;26.06;50.64;97991.78;5224840;28;20212;-64
2022/08/21 08:53:26;;;;;;;4.35;3.72;;;25.30;96.00;;;26.09;50.47;97990.91;5228479;28;20250;-68
2022/08/21 08:56:03;;;;;;;4.60;3.72;;;25.20;96.20;;;26.23;49.82;97989.13;5232244;28;20210;-64
2022/08/21 08:58:42;;;;;;;4.32;3.92;;;25.40;95.50;;;26.41;48.21;97982.94;5231620;28;20235;-65
2022/08/21 09:01:20;;;;;;;5.43;4.07;;;25.60;94.70;;;26.30;49.47;97980.38;5225725;28;20551;-68
2022/08/21 09:04:01;;;;;;;4.65;3.80;;;25.40;95.50;;;26.35;50.98;97982.94;5229487;28;20234;-65
2022/08/21 09:06:55;;;;;;;4.57;4.15;;;25.70;95.80;;;26.51;50.29;97984.69;5231260;28;20578;-65
2022/08/21 09:09:47;;;;;;;4.85;4.00;;;26.00;95.30;;;26.66;49.04;97981.97;5228785;28;20208;-65
2022/08/21 09:12:35;;;;;;;4.53;4.13;;;26.00;95.80;;;26.75;49.97;97978.44;5230878;28;20204;-68
2022/08/21 09:15:21;;;;;;;4.25;3.92;;;25.90;95.30;;;26.64;50.25;97985.47;5228888;28;20204;-65
2022/08/21 09:18:34;;;;;;;4.15;3.65;;;25.70;95.70;;;26.76;49.97;97974.94;5231516;28;20204;-67
2022/08/21 09:21:18;;;;;;;4.90;4.32;;;26.00;95.40;;;26.76;49.21;97974.94;5228442;28;20192;-65
2022/08/21 09:24:01;;;;;;;4.32;4.00;;;26.00;94.50;;;26.72;48.66;97965.31;5234929;28;20221;-66
2022/08/21 09:26:48;;;;;;;5.85;4.38;;;25.80;94.10;;;26.82;47.77;97974.91;5239598;28;20696;-65
2022/08/21 09:29:29;;;;;;;5.25;4.00;;;25.90;94.50;;;26.83;47.56;97966.13;5223128;28;20204;-65
2022/08/21 09:32:04;;;;;;;5.07;4.28;;;26.10;93.50;;;26.93;46.69;97962.59;5232680;28;20219;-66
2022/08/21 09:34:39;;;;;;;4.88;4.30;;;26.30;92.70;;;26.82;47.46;97959.16;5233102;28;20224;-65
2022/08/21 09:37:19;;;;;;;5.05;4.25;;;25.90;93.60;;;26.80;48.15;97960.91;5229428;28;20261;-65
2022/08/21 09:39:53;;;;;;;4.80;4.15;;;25.90;93.80;;;26.74;47.50;97950.47;5229288;28;20579;-66
2022/08/21 09:42:32;;;;;;;6.18;4.70;;;25.80;93.40;;;26.83;47.89;97962.66;5231404;28;20223;-66
2022/08/21 09:45:13;;;;;;;4.70;4.30;;;26.00;93.60;;;26.98;46.76;97956.44;5235052;28;20286;-65
2022/08/21 09:47:47;;;;;;;5.20;4.70;;;26.20;92.70;;;27.06;46.11;97959.88;5229559;28;20468;-65
2022/08/21 09:50:26;;;;;;;5.55;4.32;;;26.30;92.00;;;26.82;46.05;97951.28;5233338;28;20210;-65
2022/08/21 09:53:03;;;;;;;5.60;4.50;;;26.00;92.20;;;27.06;45.63;97954.63;5232780;28;20652;-65
2022/08/21 09:58:50;;;;;;;5.47;4.47;;;26.20;91.50;;;26.90;45.56;97952.13;5232253;28;20215;-65
2022/08/21 10:01:27;;;;;;;5.07;4.53;;;26.20;91.40;;;26.98;45.70;97953.81;5230383;28;20219;-65
2022/08/21 10:04:06;;;;;;;5.57;5.03;;;26.40;91.30;;;26.93;44.83;97953.84;5233796;28;20224;-65
2022/08/21 10:06:41;;;;;;;5.22;4.43;;;26.20;90.70;;;26.88;44.99;97943.38;5229137;28;20205;-66
2022/08/21 10:09:19;;;;;;;5.68;4.22;;;26.20;90.80;;;26.99;45.07;97945.94;5232407;28;20262;-65
2022/08/21 10:12:11;;;;;;;4.78;4.38;;;26.30;90.70;;;26.91;44.43;97938.09;5235799;28;20263;-66
2022/08/21 10:15:04;;;;;;;4.68;4.28;;;26.20;90.10;;;26.85;43.61;97942.53;5239323;28;20252;-66
2022/08/21 10:17:53;;;;;;;5.53;4.63;;;26.10;89.80;;;26.68;45.07;97937.38;5236002;28;20632;-65
2022/08/21 10:20:37;;;;;;;5.25;4.57;;;26.00;90.90;;;26.74;44.47;97934.72;5238591;28;20215;-65
2022/08/21 10:23:30;;;;;;;6.18;4.57;;;26.00;90.10;;;26.93;42.62;97935.50;5229771;28;20231;-65
2022/08/21 10:26:14;;;;;;;6.30;4.30;;;26.30;88.20;;;27.08;40.96;97927.50;5238820;28;20207;-65
2022/08/21 10:28:58;;;;;;;5.30;4.43;;;26.50;85.10;;;26.86;41.79;97929.38;5235498;28;20205;-67
2022/08/21 10:31:46;;;;;;;4.60;4.20;;;26.30;85.80;;;26.99;43.19;97924.06;5233941;28;20450;-65
2022/08/21 10:34:38;;;;;;;5.88;4.50;;;26.40;87.80;;;27.19;43.02;97919.56;5234085;28;20714;-65
2022/08/21 10:37:25;;;;;;;5.75;4.07;;;26.60;87.90;;;27.24;40.70;97915.13;5232870;28;20530;-65
2022/08/21 10:40:13;;;;;;;6.20;4.10;;;26.70;84.20;;;27.27;40.85;97920.38;5230197;28;20687;-65
2022/08/21 10:43:01;;;;;;;4.75;4.03;;;26.70;83.60;;;27.34;40.91;97921.19;5229370;28;20227;-65
2022/08/21 10:45:49;;;;;;;5.65;4.30;;;26.80;84.50;;;27.22;41.62;97918.69;5229816;28;20209;-67
2022/08/21 10:48:31;;;;;;;4.68;3.65;;;26.70;85.00;;;27.28;40.70;97918.63;5230749;28;20211;-67
2022/08/21 10:51:12;;;;;;;4.75;4.07;;;26.70;83.80;;;27.43;40.49;97912.34;5234175;28;20214;-67
2022/08/21 10:54:00;;;;;;;4.32;3.92;;;26.80;84.50;;;27.22;39.97;97911.66;5236968;28;20734;-67
2022/08/21 10:56:41;;;;;;;5.28;4.18;;;26.60;82.40;;;27.29;40.34;97907.22;5234933;28;20197;-65
2022/08/21 10:59:32;;;;;;;4.75;3.90;;;26.60;83.20;;;27.31;39.82;97901.09;5236138;28;20703;-66